sensor_id;sensor_type;location;lat;lon;timestamp;pressure;altitude;pressure_sealevel;temperature;humidity
39897;BME280;25567;48.276;14.242;2023-03-14T00:01:25;96641.44;;;4.47;86.82
39897;BME280;25567;48.276;14.242;2023-03-14T00:03:52;96645.66;;;4.48;86.21
39897;BME280;25567;48.276;14.242;2023-03-14T00:06:19;96645.00;;;4.41;86.99
39897;BME280;25567;48.276;14.242;2023-03-14T00:08:46;96654.03;;;4.33;87.35
39897;BME280;25567;48.276;14.242;2023-03-14T00:11:17;96662.88;;;4.15;87.77
39897;BME280;25567;48.276;14.242;2023-03-14T00:13:47;96665.81;;;4.19;88.28
39897;BME280;25567;48.276;14.242;2023-03-14T00:16:14;96674.63;;;4.13;88.78
39897;BME280;25567;48.276;14.242;2023-03-14T00:18:41;96686.00;;;4.18;89.34
39897;BME280;25567;48.276;14.242;2023-03-14T00:21:08;96686.81;;;4.19;89.47
39897;BME280;25567;48.276;14.242;2023-03-14T00:23:40;96699.00;;;4.25;89.37
39897;BME280;25567;48.276;14.242;2023-03-14T00:26:10;96684.66;;;4.16;89.12
39897;BME280;25567;48.276;14.242;2023-03-14T00:28:37;96688.28;;;4.15;89.57
39897;BME280;25567;48.276;14.242;2023-03-14T00:31:06;96706.09;;;4.13;89.46
39897;BME280;25567;48.276;14.242;2023-03-14T00:33:33;96734.75;;;4.03;89.60
39897;BME280;25567;48.276;14.242;2023-03-14T00:36:04;96785.19;;;4.16;90.16
39897;BME280;25567;48.276;14.242;2023-03-14T00:38:32;96742.34;;;4.40;90.47
39897;BME280;25567;48.276;14.242;2023-03-14T00:40:59;96756.09;;;4.71;91.04
39897;BME280;25567;48.276;14.242;2023-03-14T00:43:29;96755.66;;;4.74;91.03
39897;BME280;25567;48.276;14.242;2023-03-14T00:45:55;96753.88;;;4.91;90.39
39897;BME280;25567;48.276;14.242;2023-03-14T00:48:23;96766.00;;;5.21;90.30
39897;BME280;25567;48.276;14.242;2023-03-14T00:50:50;96768.72;;;5.26;90.16
39897;BME280;25567;48.276;14.242;2023-03-14T00:53:16;96752.59;;;5.34;90.35
39897;BME280;25567;48.276;14.242;2023-03-14T00:55:44;96789.69;;;5.38;89.47
39897;BME280;25567;48.276;14.242;2023-03-14T00:58:12;96781.13;;;5.43;89.72
39897;BME280;25567;48.276;14.242;2023-03-14T01:00:40;96760.03;;;5.72;89.06
39897;BME280;25567;48.276;14.242;2023-03-14T01:03:08;96774.53;;;5.91;89.42
39897;BME280;25567;48.276;14.242;2023-03-14T01:05:35;96762.59;;;6.00;87.93
39897;BME280;25567;48.276;14.242;2023-03-14T01:08:02;96763.66;;;5.99;87.88
39897;BME280;25567;48.276;14.242;2023-03-14T01:10:30;96760.09;;;5.94;87.86
39897;BME280;25567;48.276;14.242;2023-03-14T01:12:57;96761.09;;;5.88;88.24
39897;BME280;25567;48.276;14.242;2023-03-14T01:15:23;96755.97;;;5.81;88.70
39897;BME280;25567;48.276;14.242;2023-03-14T01:17:50;96732.69;;;5.73;88.94
39897;BME280;25567;48.276;14.242;2023-03-14T01:20:18;96726.88;;;5.71;88.59
39897;BME280;25567;48.276;14.242;2023-03-14T01:22:45;96749.72;;;5.70;88.80
39897;BME280;25567;48.276;14.242;2023-03-14T01:25:14;96766.41;;;5.76;89.99
39897;BME280;25567;48.276;14.242;2023-03-14T01:27:42;96766.88;;;5.73;89.98
39897;BME280;25567;48.276;14.242;2023-03-14T01:30:10;96765.53;;;5.53;91.54
39897;BME280;25567;48.276;14.242;2023-03-14T01:32:40;96771.47;;;5.48;92.00
39897;BME280;25567;48.276;14.242;2023-03-14T01:35:07;96771.56;;;5.54;91.45
39897;BME280;25567;48.276;14.242;2023-03-14T01:37:34;96792.69;;;5.59;91.08
39897;BME280;25567;48.276;14.242;2023-03-14T01:40:01;96801.38;;;5.59;91.08
39897;BME280;25567;48.276;14.242;2023-03-14T01:42:28;96813.56;;;5.48;90.72
39897;BME280;25567;48.276;14.242;2023-03-14T01:44:56;96805.63;;;5.31;91.65
39897;BME280;25567;48.276;14.242;2023-03-14T01:47:24;96806.00;;;5.23;91.89
39897;BME280;25567;48.276;14.242;2023-03-14T01:49:56;96808.44;;;5.13;92.54
39897;BME280;25567;48.276;14.242;2023-03-14T01:52:36;96814.16;;;5.10;92.94
39897;BME280;25567;48.276;14.242;2023-03-14T01:55:12;96795.75;;;5.10;93.96
39897;BME280;25567;48.276;14.242;2023-03-14T01:57:44;96798.06;;;5.06;94.11
39897;BME280;25567;48.276;14.242;2023-03-14T02:00:14;96797.03;;;5.07;93.55
39897;BME280;25567;48.276;14.242;2023-03-14T02:02:45;96798.88;;;5.07;93.59
39897;BME280;25567;48.276;14.242;2023-03-14T02:05:14;96814.63;;;5.07;93.53
39897;BME280;25567;48.276;14.242;2023-03-14T02:07:52;96803.19;;;5.01;93.52
39897;BME280;25567;48.276;14.242;2023-03-14T02:10:22;96798.75;;;5.01;93.48
39897;BME280;25567;48.276;14.242;2023-03-14T02:12:51;96796.13;;;5.01;93.82
39897;BME280;25567;48.276;14.242;2023-03-14T02:15:19;96787.66;;;4.99;94.66
39897;BME280;25567;48.276;14.242;2023-03-14T02:17:46;96777.97;;;5.00;94.95
39897;BME280;25567;48.276;14.242;2023-03-14T02:20:36;96779.69;;;4.94;95.10
39897;BME280;25567;48.276;14.242;2023-03-14T02:23:05;96786.53;;;4.95;96.13
39897;BME280;25567;48.276;14.242;2023-03-14T02:25:43;96809.72;;;4.98;95.74
39897;BME280;25567;48.276;14.242;2023-03-14T02:28:12;96822.53;;;4.95;95.24
39897;BME280;25567;48.276;14.242;2023-03-14T02:30:40;96828.59;;;4.95;95.51
39897;BME280;25567;48.276;14.242;2023-03-14T02:33:10;96842.31;;;4.86;96.79
39897;BME280;25567;48.276;14.242;2023-03-14T02:35:50;96851.69;;;4.81;97.80
39897;BME280;25567;48.276;14.242;2023-03-14T02:38:33;96867.22;;;4.83;97.54
39897;BME280;25567;48.276;14.242;2023-03-14T02:41:00;96872.00;;;4.86;97.27
39897;BME280;25567;48.276;14.242;2023-03-14T02:43:27;96881.03;;;4.90;97.41
39897;BME280;25567;48.276;14.242;2023-03-14T02:45:54;96898.41;;;4.91;97.79
39897;BME280;25567;48.276;14.242;2023-03-14T02:48:25;96905.25;;;4.92;97.50
39897;BME280;25567;48.276;14.242;2023-03-14T02:50:56;96883.53;;;4.97;97.51
39897;BME280;25567;48.276;14.242;2023-03-14T02:53:28;96862.84;;;5.12;97.12
39897;BME280;25567;48.276;14.242;2023-03-14T02:55:55;96864.06;;;5.22;97.44
39897;BME280;25567;48.276;14.242;2023-03-14T02:58:22;96875.94;;;5.24;97.41
39897;BME280;25567;48.276;14.242;2023-03-14T03:00:49;96867.34;;;5.29;97.51
39897;BME280;25567;48.276;14.242;2023-03-14T03:03:16;96861.69;;;5.20;96.76
39897;BME280;25567;48.276;14.242;2023-03-14T03:05:43;96851.59;;;5.17;96.77
39897;BME280;25567;48.276;14.242;2023-03-14T03:08:10;96839.28;;;5.17;96.98
39897;BME280;25567;48.276;14.242;2023-03-14T03:10:37;96831.16;;;5.19;96.79
39897;BME280;25567;48.276;14.242;2023-03-14T03:13:04;96825.66;;;5.21;96.92
39897;BME280;25567;48.276;14.242;2023-03-14T03:15:30;96831.72;;;5.21;96.60
39897;BME280;25567;48.276;14.242;2023-03-14T03:17:57;96857.44;;;5.19;97.08
39897;BME280;25567;48.276;14.242;2023-03-14T03:20:24;96842.69;;;5.18;96.32
39897;BME280;25567;48.276;14.242;2023-03-14T03:22:50;96835.28;;;5.15;97.07
39897;BME280;25567;48.276;14.242;2023-03-14T03:25:17;96833.56;;;5.09;96.92
39897;BME280;25567;48.276;14.242;2023-03-14T03:27:44;96838.50;;;5.05;96.99
39897;BME280;25567;48.276;14.242;2023-03-14T03:30:11;96852.09;;;5.02;97.11
39897;BME280;25567;48.276;14.242;2023-03-14T03:32:38;96850.63;;;4.94;96.87
39897;BME280;25567;48.276;14.242;2023-03-14T03:35:05;96860.91;;;4.96;96.74
39897;BME280;25567;48.276;14.242;2023-03-14T03:37:32;96872.78;;;4.98;96.97
39897;BME280;25567;48.276;14.242;2023-03-14T03:39:59;96872.78;;;4.98;97.21
39897;BME280;25567;48.276;14.242;2023-03-14T03:42:27;96872.09;;;5.03;97.58
39897;BME280;25567;48.276;14.242;2023-03-14T03:44:55;96873.47;;;5.06;97.97
39897;BME280;25567;48.276;14.242;2023-03-14T03:47:21;96880.09;;;5.08;97.65
39897;BME280;25567;48.276;14.242;2023-03-14T03:49:48;96891.16;;;5.10;97.65
39897;BME280;25567;48.276;14.242;2023-03-14T03:52:15;96879.88;;;5.10;97.82
39897;BME280;25567;48.276;14.242;2023-03-14T03:54:41;96875.97;;;5.12;97.93
39897;BME280;25567;48.276;14.242;2023-03-14T03:57:08;96876.53;;;5.14;97.94
39897;BME280;25567;48.276;14.242;2023-03-14T03:59:35;96878.47;;;5.19;98.99
39897;BME280;25567;48.276;14.242;2023-03-14T04:02:01;96865.31;;;5.19;100.00
39897;BME280;25567;48.276;14.242;2023-03-14T04:04:28;96870.59;;;5.19;100.00
39897;BME280;25567;48.276;14.242;2023-03-14T04:06:55;96878.22;;;5.21;100.00
39897;BME280;25567;48.276;14.242;2023-03-14T04:09:22;96868.41;;;5.28;100.00
39897;BME280;25567;48.276;14.242;2023-03-14T04:11:48;96858.69;;;5.28;100.00
39897;BME280;25567;48.276;14.242;2023-03-14T04:14:15;96858.88;;;5.39;100.00
39897;BME280;25567;48.276;14.242;2023-03-14T04:16:42;96851.59;;;5.58;99.51
39897;BME280;25567;48.276;14.242;2023-03-14T04:19:09;96852.13;;;5.72;99.64
39897;BME280;25567;48.276;14.242;2023-03-14T04:21:35;96833.31;;;5.80;98.95
39897;BME280;25567;48.276;14.242;2023-03-14T04:24:10;96828.22;;;5.90;98.84
39897;BME280;25567;48.276;14.242;2023-03-14T04:26:37;96831.19;;;6.11;98.59
39897;BME280;25567;48.276;14.242;2023-03-14T04:29:04;96849.06;;;6.43;98.46
39897;BME280;25567;48.276;14.242;2023-03-14T04:31:31;96855.34;;;6.59;97.59
39897;BME280;25567;48.276;14.242;2023-03-14T04:33:58;96858.19;;;6.74;96.34
39897;BME280;25567;48.276;14.242;2023-03-14T04:36:24;96852.34;;;6.89;94.83
39897;BME280;25567;48.276;14.242;2023-03-14T04:38:51;96856.16;;;6.98;94.38
39897;BME280;25567;48.276;14.242;2023-03-14T04:41:18;96866.06;;;7.13;92.52
39897;BME280;25567;48.276;14.242;2023-03-14T04:43:44;96860.09;;;7.18;91.19
39897;BME280;25567;48.276;14.242;2023-03-14T04:46:11;96847.50;;;7.25;90.86
39897;BME280;25567;48.276;14.242;2023-03-14T04:48:38;96843.22;;;7.19;90.26
39897;BME280;25567;48.276;14.242;2023-03-14T04:51:05;96851.06;;;7.14;90.89
39897;BME280;25567;48.276;14.242;2023-03-14T04:53:31;96857.19;;;7.20;91.31
39897;BME280;25567;48.276;14.242;2023-03-14T04:55:58;96864.59;;;7.23;91.14
39897;BME280;25567;48.276;14.242;2023-03-14T04:58:25;96868.00;;;7.18;91.00
39897;BME280;25567;48.276;14.242;2023-03-14T05:00:52;96875.34;;;7.16;91.83
39897;BME280;25567;48.276;14.242;2023-03-14T05:03:18;96879.25;;;7.13;92.45
39897;BME280;25567;48.276;14.242;2023-03-14T05:05:46;96884.19;;;7.05;94.12
39897;BME280;25567;48.276;14.242;2023-03-14T05:08:13;96885.47;;;7.02;95.44
39897;BME280;25567;48.276;14.242;2023-03-14T05:10:39;96897.81;;;6.79;97.52
39897;BME280;25567;48.276;14.242;2023-03-14T05:13:06;96907.06;;;6.82;98.45
39897;BME280;25567;48.276;14.242;2023-03-14T05:15:33;96917.84;;;6.80;97.62
39897;BME280;25567;48.276;14.242;2023-03-14T05:17:59;96911.31;;;6.66;98.55
39897;BME280;25567;48.276;14.242;2023-03-14T05:20:26;96916.50;;;6.61;99.01
39897;BME280;25567;48.276;14.242;2023-03-14T05:22:53;96915.16;;;6.58;100.00
39897;BME280;25567;48.276;14.242;2023-03-14T05:25:20;96918.81;;;6.57;100.00
39897;BME280;25567;48.276;14.242;2023-03-14T05:27:46;96926.88;;;6.50;100.00
39897;BME280;25567;48.276;14.242;2023-03-14T05:30:13;96922.00;;;6.42;100.00
39897;BME280;25567;48.276;14.242;2023-03-14T05:32:43;96913.78;;;6.39;100.00
39897;BME280;25567;48.276;14.242;2023-03-14T05:35:10;96904.53;;;6.36;100.00
39897;BME280;25567;48.276;14.242;2023-03-14T05:37:37;96903.16;;;6.33;100.00
39897;BME280;25567;48.276;14.242;2023-03-14T05:40:05;96906.28;;;6.30;100.00
39897;BME280;25567;48.276;14.242;2023-03-14T05:42:33;96908.34;;;6.28;100.00
39897;BME280;25567;48.276;14.242;2023-03-14T05:44:59;96899.91;;;6.26;100.00
39897;BME280;25567;48.276;14.242;2023-03-14T05:47:26;96891.44;;;6.24;100.00
39897;BME280;25567;48.276;14.242;2023-03-14T05:49:53;96893.53;;;6.22;100.00
39897;BME280;25567;48.276;14.242;2023-03-14T05:52:20;96894.31;;;6.23;100.00
39897;BME280;25567;48.276;14.242;2023-03-14T05:54:46;96890.66;;;6.24;100.00
39897;BME280;25567;48.276;14.242;2023-03-14T05:57:13;96892.41;;;6.18;100.00
39897;BME280;25567;48.276;14.242;2023-03-14T05:59:40;96888.41;;;6.15;100.00
39897;BME280;25567;48.276;14.242;2023-03-14T06:02:06;96880.28;;;6.17;100.00
39897;BME280;25567;48.276;14.242;2023-03-14T06:04:33;96887.13;;;6.18;100.00
39897;BME280;25567;48.276;14.242;2023-03-14T06:07:00;96880.50;;;6.15;100.00
39897;BME280;25567;48.276;14.242;2023-03-14T06:09:27;96875.00;;;6.17;100.00
39897;BME280;25567;48.276;14.242;2023-03-14T06:11:53;96885.84;;;6.21;100.00
39897;BME280;25567;48.276;14.242;2023-03-14T06:14:20;96878.19;;;6.19;100.00
39897;BME280;25567;48.276;14.242;2023-03-14T06:16:47;96880.34;;;6.22;100.00
39897;BME280;25567;48.276;14.242;2023-03-14T06:19:16;96864.78;;;6.21;100.00
39897;BME280;25567;48.276;14.242;2023-03-14T06:21:43;96851.41;;;6.22;100.00
39897;BME280;25567;48.276;14.242;2023-03-14T06:24:10;96841.41;;;6.24;100.00
39897;BME280;25567;48.276;14.242;2023-03-14T06:26:36;96835.91;;;6.26;100.00
39897;BME280;25567;48.276;14.242;2023-03-14T06:29:03;96837.81;;;6.30;100.00
39897;BME280;25567;48.276;14.242;2023-03-14T06:31:31;96830.78;;;6.36;100.00
39897;BME280;25567;48.276;14.242;2023-03-14T06:33:58;96834.00;;;6.38;100.00
39897;BME280;25567;48.276;14.242;2023-03-14T06:36:25;96824.00;;;6.40;100.00
39897;BME280;25567;48.276;14.242;2023-03-14T06:38:52;96827.75;;;6.44;100.00
39897;BME280;25567;48.276;14.242;2023-03-14T06:41:19;96825.19;;;6.49;100.00
39897;BME280;25567;48.276;14.242;2023-03-14T06:43:46;96826.53;;;6.52;100.00
39897;BME280;25567;48.276;14.242;2023-03-14T06:46:12;96821.03;;;6.54;100.00
39897;BME280;25567;48.276;14.242;2023-03-14T06:48:39;96845.53;;;6.54;100.00
39897;BME280;25567;48.276;14.242;2023-03-14T06:51:06;96839.53;;;6.59;100.00
39897;BME280;25567;48.276;14.242;2023-03-14T06:53:33;96835.00;;;6.54;100.00
39897;BME280;25567;48.276;14.242;2023-03-14T06:55:59;96844.28;;;6.57;100.00
39897;BME280;25567;48.276;14.242;2023-03-14T06:58:26;96839.25;;;6.55;100.00
39897;BME280;25567;48.276;14.242;2023-03-14T07:00:53;96841.63;;;6.57;100.00
39897;BME280;25567;48.276;14.242;2023-03-14T07:03:21;96845.63;;;6.59;100.00
39897;BME280;25567;48.276;14.242;2023-03-14T07:05:48;96847.44;;;6.59;100.00
39897;BME280;25567;48.276;14.242;2023-03-14T07:08:15;96845.63;;;6.59;100.00
39897;BME280;25567;48.276;14.242;2023-03-14T07:10:42;96837.47;;;6.61;100.00
39897;BME280;25567;48.276;14.242;2023-03-14T07:13:08;96838.59;;;6.65;100.00
39897;BME280;25567;48.276;14.242;2023-03-14T07:15:35;96831.47;;;6.65;100.00
39897;BME280;25567;48.276;14.242;2023-03-14T07:18:02;96824.91;;;6.68;100.00
39897;BME280;25567;48.276;14.242;2023-03-14T07:20:29;96820.50;;;6.74;100.00
39897;BME280;25567;48.276;14.242;2023-03-14T07:22:58;96816.38;;;6.78;100.00
39897;BME280;25567;48.276;14.242;2023-03-14T07:25:26;96808.50;;;6.83;100.00
39897;BME280;25567;48.276;14.242;2023-03-14T07:27:53;96814.91;;;6.87;100.00
39897;BME280;25567;48.276;14.242;2023-03-14T07:30:20;96818.63;;;6.91;100.00
39897;BME280;25567;48.276;14.242;2023-03-14T07:32:46;96820.53;;;6.96;100.00
39897;BME280;25567;48.276;14.242;2023-03-14T07:35:13;96834.00;;;6.99;100.00
39897;BME280;25567;48.276;14.242;2023-03-14T07:37:40;96829.97;;;7.14;100.00
39897;BME280;25567;48.276;14.242;2023-03-14T07:40:07;96837.69;;;7.21;100.00
39897;BME280;25567;48.276;14.242;2023-03-14T07:42:34;96841.25;;;7.31;100.00
39897;BME280;25567;48.276;14.242;2023-03-14T07:45:00;96855.91;;;7.44;100.00
39897;BME280;25567;48.276;14.242;2023-03-14T07:47:27;96867.66;;;7.59;100.00
39897;BME280;25567;48.276;14.242;2023-03-14T07:49:54;96865.97;;;7.75;100.00
39897;BME280;25567;48.276;14.242;2023-03-14T07:52:21;96861.78;;;7.79;100.00
39897;BME280;25567;48.276;14.242;2023-03-14T07:54:47;96873.81;;;7.97;100.00
39897;BME280;25567;48.276;14.242;2023-03-14T07:57:14;96871.19;;;7.97;100.00
39897;BME280;25567;48.276;14.242;2023-03-14T07:59:41;96863.53;;;7.95;100.00
39897;BME280;25567;48.276;14.242;2023-03-14T08:02:10;96860.41;;;8.04;100.00
39897;BME280;25567;48.276;14.242;2023-03-14T08:04:39;96862.56;;;8.07;100.00
39897;BME280;25567;48.276;14.242;2023-03-14T08:07:06;96869.47;;;8.08;100.00
39897;BME280;25567;48.276;14.242;2023-03-14T08:09:32;96863.66;;;8.11;100.00
39897;BME280;25567;48.276;14.242;2023-03-14T08:11:59;96872.41;;;8.16;100.00
39897;BME280;25567;48.276;14.242;2023-03-14T08:14:26;96868.69;;;8.12;100.00
39897;BME280;25567;48.276;14.242;2023-03-14T08:16:52;96868.94;;;8.11;100.00
39897;BME280;25567;48.276;14.242;2023-03-14T08:19:19;96867.91;;;8.12;100.00
39897;BME280;25567;48.276;14.242;2023-03-14T08:21:46;96870.81;;;8.15;100.00
39897;BME280;25567;48.276;14.242;2023-03-14T08:24:12;96866.63;;;8.19;100.00
39897;BME280;25567;48.276;14.242;2023-03-14T08:26:39;96863.44;;;8.17;100.00
39897;BME280;25567;48.276;14.242;2023-03-14T08:29:06;96860.47;;;8.09;100.00
39897;BME280;25567;48.276;14.242;2023-03-14T08:31:35;96869.72;;;8.11;100.00
39897;BME280;25567;48.276;14.242;2023-03-14T08:34:02;96877.31;;;8.02;100.00
39897;BME280;25567;48.276;14.242;2023-03-14T08:36:29;96877.88;;;8.05;100.00
39897;BME280;25567;48.276;14.242;2023-03-14T08:38:57;96871.78;;;8.04;100.00
39897;BME280;25567;48.276;14.242;2023-03-14T08:41:24;96871.50;;;8.00;100.00
39897;BME280;25567;48.276;14.242;2023-03-14T08:43:50;96876.78;;;8.00;100.00
39897;BME280;25567;48.276;14.242;2023-03-14T08:46:17;96864.13;;;8.02;100.00
39897;BME280;25567;48.276;14.242;2023-03-14T08:48:44;96853.41;;;7.87;100.00
39897;BME280;25567;48.276;14.242;2023-03-14T08:51:12;96873.25;;;7.90;100.00
39897;BME280;25567;48.276;14.242;2023-03-14T08:53:40;96862.31;;;7.81;100.00
39897;BME280;25567;48.276;14.242;2023-03-14T08:56:08;96859.22;;;7.84;100.00
39897;BME280;25567;48.276;14.242;2023-03-14T08:58:37;96877.44;;;7.85;100.00
39897;BME280;25567;48.276;14.242;2023-03-14T09:01:05;96885.59;;;7.84;100.00
39897;BME280;25567;48.276;14.242;2023-03-14T09:03:32;96885.66;;;7.89;100.00
39897;BME280;25567;48.276;14.242;2023-03-14T09:06:08;96878.00;;;7.93;100.00
39897;BME280;25567;48.276;14.242;2023-03-14T09:08:36;96875.47;;;7.76;100.00
39897;BME280;25567;48.276;14.242;2023-03-14T09:11:07;96878.56;;;7.67;100.00
39897;BME280;25567;48.276;14.242;2023-03-14T09:13:35;96876.78;;;7.73;100.00
39897;BME280;25567;48.276;14.242;2023-03-14T09:16:02;96887.63;;;7.77;100.00
39897;BME280;25567;48.276;14.242;2023-03-14T09:18:29;96886.91;;;7.81;100.00
39897;BME280;25567;48.276;14.242;2023-03-14T09:20:56;96902.72;;;7.81;100.00
39897;BME280;25567;48.276;14.242;2023-03-14T09:23:23;96904.09;;;7.84;100.00
39897;BME280;25567;48.276;14.242;2023-03-14T09:25:55;96912.00;;;7.84;100.00
39897;BME280;25567;48.276;14.242;2023-03-14T09:28:22;96917.56;;;7.88;100.00
39897;BME280;25567;48.276;14.242;2023-03-14T09:30:49;96912.06;;;7.89;100.00
39897;BME280;25567;48.276;14.242;2023-03-14T09:33:19;96908.81;;;7.82;100.00
39897;BME280;25567;48.276;14.242;2023-03-14T09:35:45;96907.44;;;7.79;100.00
39897;BME280;25567;48.276;14.242;2023-03-14T09:38:12;96908.22;;;7.75;100.00
39897;BME280;25567;48.276;14.242;2023-03-14T09:40:40;96906.28;;;7.70;100.00
39897;BME280;25567;48.276;14.242;2023-03-14T09:43:11;96913.63;;;7.63;100.00
39897;BME280;25567;48.276;14.242;2023-03-14T09:45:41;96917.66;;;7.71;100.00
39897;BME280;25567;48.276;14.242;2023-03-14T09:48:16;96910.78;;;7.70;100.00
39897;BME280;25567;48.276;14.242;2023-03-14T09:50:48;96906.56;;;7.68;100.00
39897;BME280;25567;48.276;14.242;2023-03-14T09:53:18;96900.81;;;7.77;100.00
39897;BME280;25567;48.276;14.242;2023-03-14T09:55:48;96891.28;;;7.71;100.00
39897;BME280;25567;48.276;14.242;2023-03-14T09:58:19;96899.19;;;7.71;100.00
39897;BME280;25567;48.276;14.242;2023-03-14T10:00:47;96902.38;;;7.73;100.00
39897;BME280;25567;48.276;14.242;2023-03-14T10:03:22;96900.75;;;7.72;100.00
39897;BME280;25567;48.276;14.242;2023-03-14T10:05:49;96903.41;;;7.72;100.00
39897;BME280;25567;48.276;14.242;2023-03-14T10:08:16;96894.44;;;7.73;100.00
39897;BME280;25567;48.276;14.242;2023-03-14T10:10:43;96896.59;;;7.76;100.00
39897;BME280;25567;48.276;14.242;2023-03-14T10:13:18;96890.56;;;7.80;100.00
39897;BME280;25567;48.276;14.242;2023-03-14T10:15:53;96884.72;;;7.73;100.00
39897;BME280;25567;48.276;14.242;2023-03-14T10:18:22;96894.44;;;7.73;100.00
39897;BME280;25567;48.276;14.242;2023-03-14T10:21:16;96886.53;;;7.73;100.00
39897;BME280;25567;48.276;14.242;2023-03-14T10:23:44;96885.44;;;7.68;100.00
39897;BME280;25567;48.276;14.242;2023-03-14T10:26:17;96884.25;;;7.81;100.00
39897;BME280;25567;48.276;14.242;2023-03-14T10:28:46;96885.59;;;7.84;100.00
39897;BME280;25567;48.276;14.242;2023-03-14T10:31:15;96881.72;;;7.92;100.00
39897;BME280;25567;48.276;14.242;2023-03-14T10:33:42;96888.28;;;7.89;100.00
39897;BME280;25567;48.276;14.242;2023-03-14T10:36:24;96894.56;;;7.83;100.00
39897;BME280;25567;48.276;14.242;2023-03-14T10:41:52;96903.41;;;7.72;100.00
39897;BME280;25567;48.276;14.242;2023-03-14T10:44:22;96906.59;;;7.74;100.00
39897;BME280;25567;48.276;14.242;2023-03-14T10:47:00;96889.47;;;7.76;100.00
39897;BME280;25567;48.276;14.242;2023-03-14T10:49:30;96893.09;;;7.70;100.00
39897;BME280;25567;48.276;14.242;2023-03-14T10:52:02;96888.06;;;7.68;100.00
39897;BME280;25567;48.276;14.242;2023-03-14T10:54:38;96889.56;;;7.59;100.00
39897;BME280;25567;48.276;14.242;2023-03-14T10:57:05;96887.97;;;7.58;100.00
39897;BME280;25567;48.276;14.242;2023-03-14T10:59:37;96889.13;;;7.67;100.00
39897;BME280;25567;48.276;14.242;2023-03-14T11:05:15;96892.75;;;7.61;100.00
39897;BME280;25567;48.276;14.242;2023-03-14T11:07:44;96875.53;;;7.54;100.00
39897;BME280;25567;48.276;14.242;2023-03-14T11:10:26;96886.13;;;7.59;100.00
39897;BME280;25567;48.276;14.242;2023-03-14T11:15:43;96869.22;;;7.55;100.00
39897;BME280;25567;48.276;14.242;2023-03-14T11:24:13;96866.31;;;7.56;100.00
39897;BME280;25567;48.276;14.242;2023-03-14T11:26:55;96873.72;;;7.59;100.00
39897;BME280;25567;48.276;14.242;2023-03-14T11:29:40;96863.94;;;7.55;100.00
39897;BME280;25567;48.276;14.242;2023-03-14T11:32:19;96870.06;;;7.60;100.00
39897;BME280;25567;48.276;14.242;2023-03-14T11:34:52;96869.00;;;7.61;100.00
39897;BME280;25567;48.276;14.242;2023-03-14T11:37:33;96882.22;;;7.66;100.00
39897;BME280;25567;48.276;14.242;2023-03-14T11:42:33;96884.09;;;7.66;100.00
39897;BME280;25567;48.276;14.242;2023-03-14T11:45:00;96881.00;;;7.74;100.00
39897;BME280;25567;48.276;14.242;2023-03-14T11:47:32;96888.63;;;7.71;100.00
39897;BME280;25567;48.276;14.242;2023-03-14T11:50:03;96886.22;;;7.69;100.00
39897;BME280;25567;48.276;14.242;2023-03-14T11:52:38;96889.47;;;7.76;100.00
39897;BME280;25567;48.276;14.242;2023-03-14T11:55:20;96884.94;;;7.72;100.00
39897;BME280;25567;48.276;14.242;2023-03-14T11:57:56;96880.94;;;7.69;100.00
39897;BME280;25567;48.276;14.242;2023-03-14T12:00:25;96877.00;;;7.72;100.00
39897;BME280;25567;48.276;14.242;2023-03-14T12:03:09;96875.78;;;7.79;100.00
39897;BME280;25567;48.276;14.242;2023-03-14T12:10:49;96883.59;;;7.96;100.00
39897;BME280;25567;48.276;14.242;2023-03-14T12:13:18;96880.72;;;7.98;100.00
39897;BME280;25567;48.276;14.242;2023-03-14T12:15:49;96876.25;;;8.04;100.00
39897;BME280;25567;48.276;14.242;2023-03-14T12:18:27;96877.06;;;8.04;100.00
39897;BME280;25567;48.276;14.242;2023-03-14T12:20:56;96871.63;;;8.16;100.00
39897;BME280;25567;48.276;14.242;2023-03-14T12:23:24;96873.75;;;8.19;100.00
39897;BME280;25567;48.276;14.242;2023-03-14T12:26:15;96869.47;;;8.13;99.28
39897;BME280;25567;48.276;14.242;2023-03-14T12:28:49;96869.78;;;8.16;99.18
39897;BME280;25567;48.276;14.242;2023-03-14T12:36:56;96851.06;;;8.23;98.91
39897;BME280;25567;48.276;14.242;2023-03-14T12:42:17;96837.16;;;8.33;96.44
39897;BME280;25567;48.276;14.242;2023-03-14T12:44:52;96828.44;;;8.32;96.39
39897;BME280;25567;48.276;14.242;2023-03-14T12:49:48;96825.81;;;8.38;96.19
39897;BME280;25567;48.276;14.242;2023-03-14T12:52:19;96813.75;;;8.47;95.71
39897;BME280;25567;48.276;14.242;2023-03-14T12:57:40;96808.13;;;8.38;97.28
39897;BME280;25567;48.276;14.242;2023-03-14T13:00:20;96820.13;;;8.51;97.86
39897;BME280;25567;48.276;14.242;2023-03-14T13:02:48;96828.16;;;8.66;96.17
39897;BME280;25567;48.276;14.242;2023-03-14T13:05:21;96826.03;;;8.68;95.21
39897;BME280;25567;48.276;14.242;2023-03-14T13:08:06;96819.75;;;8.80;92.68
39897;BME280;25567;48.276;14.242;2023-03-14T13:10:45;96822.97;;;8.87;92.94
39897;BME280;25567;48.276;14.242;2023-03-14T13:13:23;96815.03;;;8.82;92.75
39897;BME280;25567;48.276;14.242;2023-03-14T13:15:56;96809.75;;;8.92;91.87
39897;BME280;25567;48.276;14.242;2023-03-14T13:18:40;96801.56;;;8.94;92.62
39897;BME280;25567;48.276;14.242;2023-03-14T13:23:38;96796.03;;;8.90;94.11
39897;BME280;25567;48.276;14.242;2023-03-14T13:26:11;96790.75;;;8.90;94.81
39897;BME280;25567;48.276;14.242;2023-03-14T13:28:40;96802.38;;;8.94;96.63
39897;BME280;25567;48.276;14.242;2023-03-14T13:31:20;96786.00;;;8.97;95.13
39897;BME280;25567;48.276;14.242;2023-03-14T13:34:00;96771.16;;;8.86;94.21
39897;BME280;25567;48.276;14.242;2023-03-14T13:36:28;96757.09;;;8.80;95.37
39897;BME280;25567;48.276;14.242;2023-03-14T13:38:56;96770.56;;;8.74;96.95
39897;BME280;25567;48.276;14.242;2023-03-14T13:41:24;96789.13;;;8.84;96.69
39897;BME280;25567;48.276;14.242;2023-03-14T13:43:58;96791.53;;;8.91;96.28